sensor_id;sensor_type;location;lat;lon;timestamp;P1;durP1;ratioP1;P2;durP2;ratioP2
70467;SDS011;57934;51.532;7.684;2024-03-02T00:00:19;4.43;;;1.80;;
70467;SDS011;57934;51.532;7.684;2024-03-02T00:02:47;2.63;;;1.92;;
70467;SDS011;57934;51.532;7.684;2024-03-02T00:05:19;1.98;;;1.45;;
70467;SDS011;57934;51.532;7.684;2024-03-02T00:07:56;2.75;;;1.65;;
70467;SDS011;57934;51.532;7.684;2024-03-02T00:10:25;3.80;;;2.35;;
70467;SDS011;57934;51.532;7.684;2024-03-02T00:12:55;1.92;;;1.73;;
70467;SDS011;57934;51.532;7.684;2024-03-02T00:18:12;3.85;;;2.45;;
70467;SDS011;57934;51.532;7.684;2024-03-02T00:20:40;2.17;;;1.90;;
70467;SDS011;57934;51.532;7.684;2024-03-02T00:23:07;4.68;;;1.90;;
70467;SDS011;57934;51.532;7.684;2024-03-02T00:28:17;3.17;;;1.90;;
70467;SDS011;57934;51.532;7.684;2024-03-02T00:33:20;4.38;;;2.20;;
70467;SDS011;57934;51.532;7.684;2024-03-02T00:35:47;2.13;;;1.65;;
70467;SDS011;57934;51.532;7.684;2024-03-02T00:38:15;2.03;;;1.80;;
70467;SDS011;57934;51.532;7.684;2024-03-02T00:40:44;1.75;;;1.65;;
70467;SDS011;57934;51.532;7.684;2024-03-02T00:45:47;1.98;;;1.75;;
70467;SDS011;57934;51.532;7.684;2024-03-02T00:48:14;1.65;;;1.55;;
70467;SDS011;57934;51.532;7.684;2024-03-02T00:50:42;2.70;;;1.83;;
70467;SDS011;57934;51.532;7.684;2024-03-02T00:53:11;7.10;;;1.80;;
70467;SDS011;57934;51.532;7.684;2024-03-02T00:55:38;1.67;;;1.58;;
70467;SDS011;57934;51.532;7.684;2024-03-02T00:58:09;1.92;;;1.63;;
70467;SDS011;57934;51.532;7.684;2024-03-02T01:00:35;3.40;;;1.85;;
70467;SDS011;57934;51.532;7.684;2024-03-02T01:03:02;3.47;;;1.88;;
70467;SDS011;57934;51.532;7.684;2024-03-02T01:05:29;3.45;;;2.20;;
70467;SDS011;57934;51.532;7.684;2024-03-02T01:07:55;1.85;;;1.70;;
70467;SDS011;57934;51.532;7.684;2024-03-02T01:10:21;2.22;;;1.50;;
70467;SDS011;57934;51.532;7.684;2024-03-02T01:12:47;2.40;;;1.77;;
70467;SDS011;57934;51.532;7.684;2024-03-02T01:15:14;2.00;;;1.55;;
70467;SDS011;57934;51.532;7.684;2024-03-02T01:17:40;1.70;;;1.50;;
70467;SDS011;57934;51.532;7.684;2024-03-02T01:20:07;3.63;;;1.60;;
70467;SDS011;57934;51.532;7.684;2024-03-02T01:22:34;1.80;;;1.65;;
70467;SDS011;57934;51.532;7.684;2024-03-02T01:25:00;2.65;;;1.63;;
70467;SDS011;57934;51.532;7.684;2024-03-02T01:27:26;2.20;;;1.48;;
70467;SDS011;57934;51.532;7.684;2024-03-02T01:29:52;1.58;;;1.48;;
70467;SDS011;57934;51.532;7.684;2024-03-02T01:32:18;3.70;;;1.60;;
70467;SDS011;57934;51.532;7.684;2024-03-02T01:34:44;2.13;;;1.40;;
70467;SDS011;57934;51.532;7.684;2024-03-02T01:37:10;1.67;;;1.13;;
70467;SDS011;57934;51.532;7.684;2024-03-02T01:39:36;3.17;;;1.40;;
70467;SDS011;57934;51.532;7.684;2024-03-02T01:42:03;1.45;;;1.35;;
70467;SDS011;57934;51.532;7.684;2024-03-02T01:44:29;4.10;;;1.67;;
70467;SDS011;57934;51.532;7.684;2024-03-02T01:46:55;1.92;;;1.75;;
70467;SDS011;57934;51.532;7.684;2024-03-02T01:49:21;2.08;;;1.30;;
70467;SDS011;57934;51.532;7.684;2024-03-02T01:51:48;2.08;;;1.38;;
70467;SDS011;57934;51.532;7.684;2024-03-02T01:54:14;1.83;;;1.33;;
70467;SDS011;57934;51.532;7.684;2024-03-02T01:56:40;3.40;;;1.33;;
70467;SDS011;57934;51.532;7.684;2024-03-02T01:59:06;2.25;;;1.60;;
70467;SDS011;57934;51.532;7.684;2024-03-02T02:01:32;1.45;;;1.35;;
70467;SDS011;57934;51.532;7.684;2024-03-02T02:03:59;2.95;;;1.58;;
70467;SDS011;57934;51.532;7.684;2024-03-02T02:06:26;1.50;;;1.10;;
70467;SDS011;57934;51.532;7.684;2024-03-02T02:08:52;3.72;;;1.88;;
70467;SDS011;57934;51.532;7.684;2024-03-02T02:11:18;2.58;;;1.55;;
70467;SDS011;57934;51.532;7.684;2024-03-02T02:13:44;2.00;;;1.42;;
70467;SDS011;57934;51.532;7.684;2024-03-02T02:16:10;2.38;;;1.20;;
70467;SDS011;57934;51.532;7.684;2024-03-02T02:18:36;1.55;;;1.45;;
70467;SDS011;57934;51.532;7.684;2024-03-02T02:21:02;2.80;;;1.40;;
70467;SDS011;57934;51.532;7.684;2024-03-02T02:23:29;1.65;;;1.17;;
70467;SDS011;57934;51.532;7.684;2024-03-02T02:25:55;1.80;;;1.40;;
70467;SDS011;57934;51.532;7.684;2024-03-02T02:28:21;1.58;;;1.15;;
70467;SDS011;57934;51.532;7.684;2024-03-02T02:30:47;1.77;;;1.50;;
70467;SDS011;57934;51.532;7.684;2024-03-02T02:33:13;1.80;;;1.30;;
70467;SDS011;57934;51.532;7.684;2024-03-02T02:35:39;2.17;;;1.42;;
70467;SDS011;57934;51.532;7.684;2024-03-02T02:38:05;2.35;;;1.30;;
70467;SDS011;57934;51.532;7.684;2024-03-02T02:40:32;1.88;;;1.40;;
70467;SDS011;57934;51.532;7.684;2024-03-02T02:42:58;2.70;;;1.20;;
70467;SDS011;57934;51.532;7.684;2024-03-02T02:45:25;1.40;;;1.10;;
70467;SDS011;57934;51.532;7.684;2024-03-02T02:47:51;1.92;;;1.40;;
70467;SDS011;57934;51.532;7.684;2024-03-02T02:50:17;2.15;;;1.33;;
70467;SDS011;57934;51.532;7.684;2024-03-02T02:52:43;1.58;;;1.48;;
70467;SDS011;57934;51.532;7.684;2024-03-02T02:55:09;1.88;;;1.38;;
70467;SDS011;57934;51.532;7.684;2024-03-02T02:57:38;3.35;;;1.40;;
70467;SDS011;57934;51.532;7.684;2024-03-02T03:00:09;1.40;;;1.30;;
70467;SDS011;57934;51.532;7.684;2024-03-02T03:02:40;1.20;;;1.10;;
70467;SDS011;57934;51.532;7.684;2024-03-02T03:05:10;1.45;;;1.33;;
70467;SDS011;57934;51.532;7.684;2024-03-02T03:07:39;2.05;;;1.30;;
70467;SDS011;57934;51.532;7.684;2024-03-02T03:10:06;2.53;;;1.02;;
70467;SDS011;57934;51.532;7.684;2024-03-02T03:12:33;2.85;;;1.20;;
70467;SDS011;57934;51.532;7.684;2024-03-02T03:15:00;3.90;;;1.27;;
70467;SDS011;57934;51.532;7.684;2024-03-02T03:17:26;2.50;;;1.30;;
70467;SDS011;57934;51.532;7.684;2024-03-02T03:19:53;1.70;;;1.20;;
70467;SDS011;57934;51.532;7.684;2024-03-02T03:22:20;2.63;;;1.13;;
70467;SDS011;57934;51.532;7.684;2024-03-02T03:24:46;2.10;;;1.00;;
70467;SDS011;57934;51.532;7.684;2024-03-02T03:27:12;2.60;;;1.10;;
70467;SDS011;57934;51.532;7.684;2024-03-02T03:29:38;1.80;;;1.20;;
70467;SDS011;57934;51.532;7.684;2024-03-02T03:32:04;2.30;;;1.30;;
70467;SDS011;57934;51.532;7.684;2024-03-02T03:34:32;2.22;;;1.20;;
70467;SDS011;57934;51.532;7.684;2024-03-02T03:36:59;2.30;;;1.13;;
70467;SDS011;57934;51.532;7.684;2024-03-02T03:39:25;2.65;;;1.40;;
70467;SDS011;57934;51.532;7.684;2024-03-02T03:41:51;2.53;;;1.40;;
70467;SDS011;57934;51.532;7.684;2024-03-02T03:44:17;2.70;;;1.30;;
70467;SDS011;57934;51.532;7.684;2024-03-02T03:46:43;1.70;;;1.30;;
70467;SDS011;57934;51.532;7.684;2024-03-02T03:49:09;2.25;;;1.20;;
70467;SDS011;57934;51.532;7.684;2024-03-02T03:51:35;1.80;;;1.33;;
70467;SDS011;57934;51.532;7.684;2024-03-02T03:54:01;3.35;;;1.33;;
70467;SDS011;57934;51.532;7.684;2024-03-02T03:56:27;2.40;;;1.17;;
70467;SDS011;57934;51.532;7.684;2024-03-02T03:58:53;4.40;;;1.30;;
70467;SDS011;57934;51.532;7.684;2024-03-02T04:01:19;1.80;;;1.20;;
70467;SDS011;57934;51.532;7.684;2024-03-02T04:03:48;1.90;;;1.50;;
70467;SDS011;57934;51.532;7.684;2024-03-02T04:06:14;1.52;;;1.40;;
70467;SDS011;57934;51.532;7.684;2024-03-02T04:08:42;3.45;;;1.70;;
70467;SDS011;57934;51.532;7.684;2024-03-02T04:11:08;3.50;;;1.23;;
70467;SDS011;57934;51.532;7.684;2024-03-02T04:13:34;1.50;;;1.40;;
70467;SDS011;57934;51.532;7.684;2024-03-02T04:16:00;2.15;;;1.30;;
70467;SDS011;57934;51.532;7.684;2024-03-02T04:18:26;2.72;;;1.48;;
70467;SDS011;57934;51.532;7.684;2024-03-02T04:20:52;4.45;;;1.58;;
70467;SDS011;57934;51.532;7.684;2024-03-02T04:23:18;2.78;;;1.60;;
70467;SDS011;57934;51.532;7.684;2024-03-02T04:25:44;2.13;;;1.45;;
70467;SDS011;57934;51.532;7.684;2024-03-02T04:28:10;2.97;;;1.50;;
70467;SDS011;57934;51.532;7.684;2024-03-02T04:30:37;2.47;;;1.50;;
70467;SDS011;57934;51.532;7.684;2024-03-02T04:33:03;1.65;;;1.30;;
70467;SDS011;57934;51.532;7.684;2024-03-02T04:35:31;3.75;;;1.67;;
70467;SDS011;57934;51.532;7.684;2024-03-02T04:37:57;2.10;;;1.40;;
70467;SDS011;57934;51.532;7.684;2024-03-02T04:40:23;3.70;;;1.60;;
70467;SDS011;57934;51.532;7.684;2024-03-02T04:42:49;2.55;;;1.73;;
70467;SDS011;57934;51.532;7.684;2024-03-02T04:45:15;1.63;;;1.50;;
70467;SDS011;57934;51.532;7.684;2024-03-02T04:47:42;1.83;;;1.40;;
70467;SDS011;57934;51.532;7.684;2024-03-02T04:50:08;4.00;;;1.70;;
70467;SDS011;57934;51.532;7.684;2024-03-02T04:52:34;3.65;;;1.60;;
70467;SDS011;57934;51.532;7.684;2024-03-02T04:55:00;3.65;;;1.80;;
70467;SDS011;57934;51.532;7.684;2024-03-02T04:57:35;3.30;;;1.80;;
70467;SDS011;57934;51.532;7.684;2024-03-02T05:00:01;3.05;;;1.92;;
70467;SDS011;57934;51.532;7.684;2024-03-02T05:02:32;2.05;;;1.60;;
70467;SDS011;57934;51.532;7.684;2024-03-02T05:04:58;3.85;;;1.80;;
70467;SDS011;57934;51.532;7.684;2024-03-02T05:07:24;2.53;;;1.83;;
70467;SDS011;57934;51.532;7.684;2024-03-02T05:09:50;2.75;;;1.60;;
70467;SDS011;57934;51.532;7.684;2024-03-02T05:12:16;2.67;;;1.67;;
70467;SDS011;57934;51.532;7.684;2024-03-02T05:15:21;3.10;;;1.67;;
70467;SDS011;57934;51.532;7.684;2024-03-02T05:17:48;2.60;;;1.58;;
70467;SDS011;57934;51.532;7.684;2024-03-02T05:20:14;5.85;;;2.03;;
70467;SDS011;57934;51.532;7.684;2024-03-02T05:22:40;1.95;;;1.58;;
70467;SDS011;57934;51.532;7.684;2024-03-02T05:25:07;4.65;;;1.80;;
70467;SDS011;57934;51.532;7.684;2024-03-02T05:27:35;3.45;;;1.73;;
70467;SDS011;57934;51.532;7.684;2024-03-02T05:30:01;2.50;;;2.08;;
70467;SDS011;57934;51.532;7.684;2024-03-02T05:32:28;3.13;;;1.67;;
70467;SDS011;57934;51.532;7.684;2024-03-02T05:34:54;2.90;;;1.80;;
70467;SDS011;57934;51.532;7.684;2024-03-02T05:37:20;2.00;;;1.50;;
70467;SDS011;57934;51.532;7.684;2024-03-02T05:39:47;3.85;;;1.70;;
70467;SDS011;57934;51.532;7.684;2024-03-02T05:42:13;4.03;;;1.60;;
70467;SDS011;57934;51.532;7.684;2024-03-02T05:44:39;2.67;;;1.88;;
70467;SDS011;57934;51.532;7.684;2024-03-02T05:47:06;3.42;;;2.00;;
70467;SDS011;57934;51.532;7.684;2024-03-02T05:49:34;2.00;;;1.65;;
70467;SDS011;57934;51.532;7.684;2024-03-02T05:52:01;5.22;;;1.98;;
70467;SDS011;57934;51.532;7.684;2024-03-02T05:54:27;2.60;;;1.77;;
70467;SDS011;57934;51.532;7.684;2024-03-02T05:56:53;3.22;;;1.67;;
70467;SDS011;57934;51.532;7.684;2024-03-02T05:59:19;4.85;;;2.03;;
70467;SDS011;57934;51.532;7.684;2024-03-02T06:01:46;3.28;;;1.90;;
70467;SDS011;57934;51.532;7.684;2024-03-02T06:04:12;5.32;;;1.90;;
70467;SDS011;57934;51.532;7.684;2024-03-02T06:06:42;4.50;;;2.20;;
70467;SDS011;57934;51.532;7.684;2024-03-02T06:09:09;2.53;;;1.75;;
70467;SDS011;57934;51.532;7.684;2024-03-02T06:11:38;2.58;;;2.05;;
70467;SDS011;57934;51.532;7.684;2024-03-02T06:14:06;3.45;;;1.95;;
70467;SDS011;57934;51.532;7.684;2024-03-02T06:16:33;2.10;;;1.50;;
70467;SDS011;57934;51.532;7.684;2024-03-02T06:19:00;3.58;;;2.53;;
70467;SDS011;57934;51.532;7.684;2024-03-02T06:21:27;4.10;;;2.30;;
70467;SDS011;57934;51.532;7.684;2024-03-02T06:23:53;2.63;;;1.95;;
70467;SDS011;57934;51.532;7.684;2024-03-02T06:26:19;3.03;;;2.25;;
70467;SDS011;57934;51.532;7.684;2024-03-02T06:28:46;3.22;;;2.05;;
70467;SDS011;57934;51.532;7.684;2024-03-02T06:31:12;3.10;;;2.47;;
70467;SDS011;57934;51.532;7.684;2024-03-02T06:33:38;3.80;;;2.55;;
70467;SDS011;57934;51.532;7.684;2024-03-02T06:36:05;5.00;;;2.55;;
70467;SDS011;57934;51.532;7.684;2024-03-02T06:38:34;6.45;;;2.50;;
70467;SDS011;57934;51.532;7.684;2024-03-02T06:41:00;3.80;;;2.78;;
70467;SDS011;57934;51.532;7.684;2024-03-02T06:43:27;5.28;;;2.20;;
70467;SDS011;57934;51.532;7.684;2024-03-02T06:45:53;3.80;;;3.08;;
70467;SDS011;57934;51.532;7.684;2024-03-02T06:48:19;4.82;;;2.72;;
70467;SDS011;57934;51.532;7.684;2024-03-02T06:50:49;4.40;;;2.75;;
70467;SDS011;57934;51.532;7.684;2024-03-02T06:53:15;6.85;;;3.85;;
70467;SDS011;57934;51.532;7.684;2024-03-02T06:55:43;5.05;;;2.80;;
70467;SDS011;57934;51.532;7.684;2024-03-02T06:58:13;3.70;;;3.15;;
70467;SDS011;57934;51.532;7.684;2024-03-02T07:00:43;4.28;;;2.92;;
70467;SDS011;57934;51.532;7.684;2024-03-02T07:03:10;4.85;;;3.13;;
70467;SDS011;57934;51.532;7.684;2024-03-02T07:05:36;5.22;;;3.10;;
70467;SDS011;57934;51.532;7.684;2024-03-02T07:08:02;4.38;;;2.72;;
70467;SDS011;57934;51.532;7.684;2024-03-02T07:10:30;3.88;;;2.65;;
70467;SDS011;57934;51.532;7.684;2024-03-02T07:12:56;5.10;;;2.90;;
70467;SDS011;57934;51.532;7.684;2024-03-02T07:15:22;4.18;;;3.03;;
70467;SDS011;57934;51.532;7.684;2024-03-02T07:17:54;5.72;;;2.95;;
70467;SDS011;57934;51.532;7.684;2024-03-02T07:20:20;3.83;;;3.20;;
70467;SDS011;57934;51.532;7.684;2024-03-02T07:22:46;5.07;;;3.35;;
70467;SDS011;57934;51.532;7.684;2024-03-02T07:25:12;6.78;;;3.20;;
70467;SDS011;57934;51.532;7.684;2024-03-02T07:27:39;3.95;;;2.75;;
70467;SDS011;57934;51.532;7.684;2024-03-02T07:30:06;4.45;;;2.95;;
70467;SDS011;57934;51.532;7.684;2024-03-02T07:32:32;7.18;;;3.28;;
70467;SDS011;57934;51.532;7.684;2024-03-02T07:34:58;4.90;;;3.22;;
70467;SDS011;57934;51.532;7.684;2024-03-02T07:37:24;7.43;;;3.65;;
70467;SDS011;57934;51.532;7.684;2024-03-02T07:39:53;4.50;;;2.80;;
70467;SDS011;57934;51.532;7.684;2024-03-02T07:42:19;4.85;;;3.25;;
70467;SDS011;57934;51.532;7.684;2024-03-02T07:44:45;4.82;;;2.80;;
70467;SDS011;57934;51.532;7.684;2024-03-02T07:47:11;5.55;;;2.90;;
70467;SDS011;57934;51.532;7.684;2024-03-02T07:49:37;6.93;;;2.83;;
70467;SDS011;57934;51.532;7.684;2024-03-02T07:52:04;4.57;;;2.80;;
70467;SDS011;57934;51.532;7.684;2024-03-02T07:54:30;5.60;;;2.67;;
70467;SDS011;57934;51.532;7.684;2024-03-02T07:56:56;5.28;;;2.80;;
70467;SDS011;57934;51.532;7.684;2024-03-02T07:59:22;3.95;;;2.63;;
70467;SDS011;57934;51.532;7.684;2024-03-02T08:01:48;3.58;;;2.78;;
70467;SDS011;57934;51.532;7.684;2024-03-02T08:04:16;3.47;;;2.83;;
70467;SDS011;57934;51.532;7.684;2024-03-02T08:06:42;4.30;;;3.10;;
70467;SDS011;57934;51.532;7.684;2024-03-02T08:09:08;6.20;;;2.90;;
70467;SDS011;57934;51.532;7.684;2024-03-02T08:11:37;3.80;;;2.97;;
70467;SDS011;57934;51.532;7.684;2024-03-02T08:14:04;3.83;;;2.83;;
70467;SDS011;57934;51.532;7.684;2024-03-02T08:16:30;4.70;;;2.95;;
70467;SDS011;57934;51.532;7.684;2024-03-02T08:18:56;6.25;;;3.10;;
70467;SDS011;57934;51.532;7.684;2024-03-02T08:21:23;4.30;;;2.90;;
70467;SDS011;57934;51.532;7.684;2024-03-02T08:23:50;7.30;;;2.35;;
70467;SDS011;57934;51.532;7.684;2024-03-02T08:26:17;4.13;;;2.97;;
70467;SDS011;57934;51.532;7.684;2024-03-02T08:28:43;4.00;;;2.45;;
70467;SDS011;57934;51.532;7.684;2024-03-02T08:31:09;4.93;;;2.25;;
70467;SDS011;57934;51.532;7.684;2024-03-02T08:33:36;5.30;;;2.25;;
70467;SDS011;57934;51.532;7.684;2024-03-02T08:36:02;2.40;;;2.20;;
70467;SDS011;57934;51.532;7.684;2024-03-02T08:38:29;3.85;;;2.50;;
70467;SDS011;57934;51.532;7.684;2024-03-02T08:40:55;2.97;;;2.17;;
70467;SDS011;57934;51.532;7.684;2024-03-02T08:43:22;7.03;;;2.83;;
70467;SDS011;57934;51.532;7.684;2024-03-02T08:45:48;3.63;;;2.55;;
70467;SDS011;57934;51.532;7.684;2024-03-02T08:48:15;3.80;;;2.38;;
70467;SDS011;57934;51.532;7.684;2024-03-02T08:50:41;3.08;;;2.20;;
70467;SDS011;57934;51.532;7.684;2024-03-02T08:53:07;3.38;;;2.42;;
70467;SDS011;57934;51.532;7.684;2024-03-02T08:55:33;4.95;;;2.47;;
70467;SDS011;57934;51.532;7.684;2024-03-02T08:57:59;2.45;;;2.25;;
70467;SDS011;57934;51.532;7.684;2024-03-02T09:00:25;2.35;;;2.15;;
70467;SDS011;57934;51.532;7.684;2024-03-02T09:02:51;5.45;;;2.80;;
70467;SDS011;57934;51.532;7.684;2024-03-02T09:05:17;3.03;;;2.58;;
70467;SDS011;57934;51.532;7.684;2024-03-02T09:07:44;2.78;;;2.53;;
70467;SDS011;57934;51.532;7.684;2024-03-02T09:10:10;2.63;;;2.42;;
70467;SDS011;57934;51.532;7.684;2024-03-02T09:12:37;4.55;;;2.70;;
70467;SDS011;57934;51.532;7.684;2024-03-02T09:15:04;4.22;;;2.40;;
70467;SDS011;57934;51.532;7.684;2024-03-02T09:17:32;4.07;;;2.35;;
70467;SDS011;57934;51.532;7.684;2024-03-02T09:19:58;3.08;;;2.22;;
70467;SDS011;57934;51.532;7.684;2024-03-02T09:22:24;5.57;;;2.38;;
70467;SDS011;57934;51.532;7.684;2024-03-02T09:24:50;2.85;;;2.10;;
70467;SDS011;57934;51.532;7.684;2024-03-02T09:27:16;3.28;;;2.13;;
70467;SDS011;57934;51.532;7.684;2024-03-02T09:29:42;3.13;;;2.20;;
70467;SDS011;57934;51.532;7.684;2024-03-02T09:32:11;3.05;;;2.10;;
70467;SDS011;57934;51.532;7.684;2024-03-02T09:34:39;2.25;;;2.05;;
70467;SDS011;57934;51.532;7.684;2024-03-02T09:37:06;3.53;;;2.20;;
70467;SDS011;57934;51.532;7.684;2024-03-02T09:39:32;2.88;;;2.15;;
70467;SDS011;57934;51.532;7.684;2024-03-02T09:41:59;2.58;;;1.70;;
70467;SDS011;57934;51.532;7.684;2024-03-02T09:44:25;6.22;;;2.38;;
70467;SDS011;57934;51.532;7.684;2024-03-02T09:46:52;2.72;;;1.80;;
70467;SDS011;57934;51.532;7.684;2024-03-02T09:49:18;2.40;;;1.85;;
70467;SDS011;57934;51.532;7.684;2024-03-02T09:51:46;3.47;;;1.92;;
70467;SDS011;57934;51.532;7.684;2024-03-02T09:54:13;2.65;;;1.77;;
70467;SDS011;57934;51.532;7.684;2024-03-02T09:56:41;3.55;;;1.95;;
70467;SDS011;57934;51.532;7.684;2024-03-02T09:59:07;2.00;;;1.63;;
70467;SDS011;57934;51.532;7.684;2024-03-02T10:01:33;1.70;;;1.60;;
70467;SDS011;57934;51.532;7.684;2024-03-02T10:03:59;2.10;;;1.67;;
70467;SDS011;57934;51.532;7.684;2024-03-02T10:06:26;1.42;;;1.30;;
70467;SDS011;57934;51.532;7.684;2024-03-02T10:08:54;3.17;;;1.40;;
70467;SDS011;57934;51.532;7.684;2024-03-02T10:11:34;2.28;;;1.50;;
70467;SDS011;57934;51.532;7.684;2024-03-02T10:16:35;1.77;;;1.52;;
70467;SDS011;57934;51.532;7.684;2024-03-02T10:21:42;1.60;;;1.50;;
70467;SDS011;57934;51.532;7.684;2024-03-02T10:24:08;2.30;;;1.33;;
70467;SDS011;57934;51.532;7.684;2024-03-02T10:26:34;1.50;;;1.30;;
70467;SDS011;57934;51.532;7.684;2024-03-02T10:29:00;1.10;;;0.98;;
70467;SDS011;57934;51.532;7.684;2024-03-02T10:31:28;1.70;;;1.25;;
70467;SDS011;57934;51.532;7.684;2024-03-02T10:33:54;1.75;;;1.00;;
70467;SDS011;57934;51.532;7.684;2024-03-02T10:36:21;3.78;;;1.10;;
70467;SDS011;57934;51.532;7.684;2024-03-02T10:38:47;1.77;;;0.90;;
70467;SDS011;57934;51.532;7.684;2024-03-02T10:41:17;4.53;;;1.00;;
70467;SDS011;57934;51.532;7.684;2024-03-02T10:43:44;1.35;;;0.93;;
70467;SDS011;57934;51.532;7.684;2024-03-02T10:46:12;1.50;;;0.90;;
70467;SDS011;57934;51.532;7.684;2024-03-02T10:48:40;1.88;;;1.20;;
70467;SDS011;57934;51.532;7.684;2024-03-02T10:51:06;1.75;;;0.80;;
70467;SDS011;57934;51.532;7.684;2024-03-02T10:53:34;1.65;;;0.85;;
70467;SDS011;57934;51.532;7.684;2024-03-02T10:56:00;1.30;;;0.80;;
70467;SDS011;57934;51.532;7.684;2024-03-02T10:58:31;0.85;;;0.85;;
70467;SDS011;57934;51.532;7.684;2024-03-02T11:01:00;0.85;;;0.80;;
70467;SDS011;57934;51.532;7.684;2024-03-02T11:03:33;3.10;;;0.70;;
70467;SDS011;57934;51.532;7.684;2024-03-02T11:06:03;1.38;;;0.70;;
70467;SDS011;57934;51.532;7.684;2024-03-02T11:08:33;1.23;;;0.70;;
70467;SDS011;57934;51.532;7.684;2024-03-02T11:11:07;4.10;;;0.90;;
70467;SDS011;57934;51.532;7.684;2024-03-02T11:13:38;0.80;;;0.70;;
70467;SDS011;57934;51.532;7.684;2024-03-02T11:19:04;0.95;;;0.85;;
70467;SDS011;57934;51.532;7.684;2024-03-02T11:21:33;1.38;;;0.80;;
70467;SDS011;57934;51.532;7.684;2024-03-02T11:24:00;0.85;;;0.70;;
70467;SDS011;57934;51.532;7.684;2024-03-02T11:26:28;0.82;;;0.50;;
70467;SDS011;57934;51.532;7.684;2024-03-02T11:28:54;0.98;;;0.82;;
70467;SDS011;57934;51.532;7.684;2024-03-02T11:31:21;0.82;;;0.70;;
70467;SDS011;57934;51.532;7.684;2024-03-02T11:33:47;1.52;;;0.70;;
70467;SDS011;57934;51.532;7.684;2024-03-02T11:36:14;1.00;;;0.82;;
70467;SDS011;57934;51.532;7.684;2024-03-02T11:38:43;0.45;;;0.45;;
70467;SDS011;57934;51.532;7.684;2024-03-02T11:41:09;1.17;;;0.40;;
70467;SDS011;57934;51.532;7.684;2024-03-02T11:43:37;0.85;;;0.82;;
70467;SDS011;57934;51.532;7.684;2024-03-02T11:46:07;0.68;;;0.63;;
70467;SDS011;57934;51.532;7.684;2024-03-02T11:48:34;0.80;;;0.77;;
70467;SDS011;57934;51.532;7.684;2024-03-02T11:51:02;0.88;;;0.63;;
70467;SDS011;57934;51.532;7.684;2024-03-02T11:53:28;1.20;;;0.68;;
70467;SDS011;57934;51.532;7.684;2024-03-02T11:55:58;0.80;;;0.80;;
70467;SDS011;57934;51.532;7.684;2024-03-02T11:58:24;0.68;;;0.47;;
70467;SDS011;57934;51.532;7.684;2024-03-02T12:00:53;0.43;;;0.43;;
70467;SDS011;57934;51.532;7.684;2024-03-02T12:03:22;0.80;;;0.80;;
70467;SDS011;57934;51.532;7.684;2024-03-02T12:05:49;1.20;;;0.73;;
70467;SDS011;57934;51.532;7.684;2024-03-02T12:08:16;0.70;;;0.60;;
70467;SDS011;57934;51.532;7.684;2024-03-02T12:10:42;0.68;;;0.65;;
70467;SDS011;57934;51.532;7.684;2024-03-02T12:13:10;0.75;;;0.65;;
70467;SDS011;57934;51.532;7.684;2024-03-02T12:15:37;2.72;;;0.70;;
70467;SDS011;57934;51.532;7.684;2024-03-02T12:18:04;1.45;;;0.57;;
70467;SDS011;57934;51.532;7.684;2024-03-02T12:20:32;0.95;;;0.80;;
70467;SDS011;57934;51.532;7.684;2024-03-02T12:22:59;0.68;;;0.50;;
70467;SDS011;57934;51.532;7.684;2024-03-02T12:25:27;1.00;;;0.45;;
70467;SDS011;57934;51.532;7.684;2024-03-02T12:27:54;1.70;;;0.50;;
70467;SDS011;57934;51.532;7.684;2024-03-02T12:30:21;0.40;;;0.40;;
70467;SDS011;57934;51.532;7.684;2024-03-02T12:32:48;0.50;;;0.50;;
70467;SDS011;57934;51.532;7.684;2024-03-02T12:35:15;0.55;;;0.50;;
70467;SDS011;57934;51.532;7.684;2024-03-02T12:37:44;0.50;;;0.50;;
70467;SDS011;57934;51.532;7.684;2024-03-02T12:40:12;1.20;;;0.60;;
70467;SDS011;57934;51.532;7.684;2024-03-02T12:42:39;2.03;;;0.60;;
70467;SDS011;57934;51.532;7.684;2024-03-02T12:45:07;0.50;;;0.50;;
70467;SDS011;57934;51.532;7.684;2024-03-02T12:47:34;1.73;;;0.55;;
70467;SDS011;57934;51.532;7.684;2024-03-02T12:50:01;1.38;;;0.57;;
70467;SDS011;57934;51.532;7.684;2024-03-02T12:52:29;0.45;;;0.45;;
70467;SDS011;57934;51.532;7.684;2024-03-02T12:54:55;0.50;;;0.50;;
70467;SDS011;57934;51.532;7.684;2024-03-02T12:57:25;0.60;;;0.60;;
70467;SDS011;57934;51.532;7.684;2024-03-02T12:59:57;0.57;;;0.40;;
70467;SDS011;57934;51.532;7.684;2024-03-02T13:02:26;0.90;;;0.60;;
70467;SDS011;57934;51.532;7.684;2024-03-02T13:04:55;1.02;;;0.57;;
70467;SDS011;57934;51.532;7.684;2024-03-02T13:07:23;0.50;;;0.50;;
70467;SDS011;57934;51.532;7.684;2024-03-02T13:09:50;0.60;;;0.50;;
70467;SDS011;57934;51.532;7.684;2024-03-02T13:12:16;0.60;;;0.60;;
70467;SDS011;57934;51.532;7.684;2024-03-02T13:14:43;1.00;;;0.63;;
70467;SDS011;57934;51.532;7.684;2024-03-02T13:17:09;1.98;;;0.82;;
70467;SDS011;57934;51.532;7.684;2024-03-02T13:19:35;1.05;;;0.70;;
70467;SDS011;57934;51.532;7.684;2024-03-02T13:22:01;1.20;;;0.80;;
70467;SDS011;57934;51.532;7.684;2024-03-02T13:24:29;0.63;;;0.57;;
70467;SDS011;57934;51.532;7.684;2024-03-02T13:26:56;1.25;;;0.82;;
70467;SDS011;57934;51.532;7.684;2024-03-02T13:29:23;1.05;;;0.73;;
70467;SDS011;57934;51.532;7.684;2024-03-02T13:31:50;2.05;;;0.70;;
70467;SDS011;57934;51.532;7.684;2024-03-02T13:34:17;1.38;;;0.90;;
70467;SDS011;57934;51.532;7.684;2024-03-02T13:36:43;0.65;;;0.50;;
70467;SDS011;57934;51.532;7.684;2024-03-02T13:39:09;0.63;;;0.60;;
70467;SDS011;57934;51.532;7.684;2024-03-02T13:41:36;1.58;;;0.60;;
70467;SDS011;57934;51.532;7.684;2024-03-02T13:44:02;0.85;;;0.50;;
70467;SDS011;57934;51.532;7.684;2024-03-02T13:46:29;0.55;;;0.40;;
70467;SDS011;57934;51.532;7.684;2024-03-02T13:48:55;2.08;;;0.60;;
70467;SDS011;57934;51.532;7.684;2024-03-02T13:51:24;0.40;;;0.40;;
70467;SDS011;57934;51.532;7.684;2024-03-02T13:53:51;0.35;;;0.30;;
70467;SDS011;57934;51.532;7.684;2024-03-02T13:56:17;0.45;;;0.43;;
70467;SDS011;57934;51.532;7.684;2024-03-02T13:58:44;2.38;;;0.90;;
70467;SDS011;57934;51.532;7.684;2024-03-02T14:01:11;0.50;;;0.50;;
70467;SDS011;57934;51.532;7.684;2024-03-02T14:03:37;1.17;;;0.70;;
70467;SDS011;57934;51.532;7.684;2024-03-02T14:06:05;0.80;;;0.77;;
70467;SDS011;57934;51.532;7.684;2024-03-02T14:08:32;2.20;;;0.60;;
70467;SDS011;57934;51.532;7.684;2024-03-02T14:10:59;1.98;;;0.75;;
70467;SDS011;57934;51.532;7.684;2024-03-02T14:13:26;1.55;;;0.80;;
70467;SDS011;57934;51.532;7.684;2024-03-02T14:15:53;0.93;;;0.63;;
70467;SDS011;57934;51.532;7.684;2024-03-02T14:18:19;1.77;;;0.98;;
70467;SDS011;57934;51.532;7.684;2024-03-02T14:20:47;3.53;;;0.70;;
70467;SDS011;57934;51.532;7.684;2024-03-02T14:23:18;0.85;;;0.73;;
70467;SDS011;57934;51.532;7.684;2024-03-02T14:25:47;1.85;;;0.73;;
70467;SDS011;57934;51.532;7.684;2024-03-02T14:28:13;0.80;;;0.80;;
70467;SDS011;57934;51.532;7.684;2024-03-02T14:30:42;1.05;;;0.70;;
70467;SDS011;57934;51.532;7.684;2024-03-02T14:33:08;1.02;;;0.80;;
70467;SDS011;57934;51.532;7.684;2024-03-02T14:35:36;0.73;;;0.73;;
70467;SDS011;57934;51.532;7.684;2024-03-02T14:38:04;1.55;;;0.93;;
70467;SDS011;57934;51.532;7.684;2024-03-02T14:40:30;1.50;;;0.80;;
70467;SDS011;57934;51.532;7.684;2024-03-02T14:42:57;1.63;;;0.80;;
70467;SDS011;57934;51.532;7.684;2024-03-02T14:45:23;0.88;;;0.88;;
70467;SDS011;57934;51.532;7.684;2024-03-02T14:47:50;1.83;;;0.90;;
70467;SDS011;57934;51.532;7.684;2024-03-02T14:50:17;2.60;;;0.90;;
70467;SDS011;57934;51.532;7.684;2024-03-02T14:52:44;1.95;;;0.73;;
70467;SDS011;57934;51.532;7.684;2024-03-02T14:55:11;2.72;;;0.90;;
70467;SDS011;57934;51.532;7.684;2024-03-02T14:57:37;0.90;;;0.73;;
70467;SDS011;57934;51.532;7.684;2024-03-02T15:00:03;1.00;;;0.90;;
70467;SDS011;57934;51.532;7.684;2024-03-02T15:02:33;1.05;;;0.85;;
70467;SDS011;57934;51.532;7.684;2024-03-02T15:05:00;1.42;;;0.90;;